Terminal Aerodrome Forecast
Issued by NWS

Home | Current Version | Previous Version | Graphics & Text | Print | Product List | Glossary On
Versions: 1 2 3 4 5 6 7 8 9 10 11 12 13 14 15
171
FTUS45 KGGW 231720
TAFSDY
TAF
KSDY 231720Z 2318/2418 30019G29KT P6SM SCT090
     FM240300 30006KT P6SM FEW200=

USA.gov is the U.S. government's official web portal to all federal, state and local government web resources and services.